To NAV CANADA Home Page Login to a new session Search on AWWS site Feedback and Comments Disclaimer Vers la page française équivalente Tips FAQ What's new on the site To the Forecasts and Observations / NOTAM section To "File a Flight Plan" website Publications and other links Update of the User's profile FIC Telephone Numbers My Weather Data Folder Route Weather Data Regional Weather Data Local Weather Data To the Forecasts and Observations / NOTAM section
Request Generated 02/23/2017 at 20:46:27 UTC . Weather information available at that time is displayed.

METAR/TAF

HALIFAX/SHEARWATER/NS    

SPECI CYAW 232031Z 21009KT 4SM BR OVC004 02/01 A2990 RMK SF8 DA-1358FT LAST OBS/NEXT 271100 UTC SLP129=
SPECI CYAW 232021Z 22010KT 3SM BR OVC003 01/01 A2990 RMK SF8 DA-1371FT SLP128=
SPECI CYAW 232012Z 22010KT 3/4SM BR OVC002 01/01 A2990 RMK SF8 DA-1383FT SLP128=
METAR CYAW 232000Z 21008KT 3/8SM FG VV001 01/01 A2990 RMK FG8 DA-1409FT SLP127=
SPECI CYAW 231954Z 19011KT 1/2SM FG OVC002 01/01 A2990 RMK SF8 DA-1372FT SLP128=
SPECI CYAW 231939Z 19011KT 8SM BKN007 02/01 A2990 RMK ST7 DA-1282FT VIS LWR S CIG LWR S SLP129=
METAR CYAW 231900Z 19011KT 15SM FEW020 04/02 A2991 RMK SC1 DA-1041FT SLP130=
METAR CYAW 231800Z 22008KT 15SM FEW030 05/02 A2991 RMK CU0 DA-894FT SLP130=

TAF AMD CYAW 232035Z 2320/2406 FCST CNCLD DUE END OF FLYING PROGRAM
RMK NXT FCST WILL BE ISSUED AT 271215Z=
Your time UTC time
Weather data provided by Environment Canada and NAV CANADA